Donnes mto: Actuelle jeudi, 19.09.2019 04:00
Date Horaire Temp. E. Hum. E. P.atmo. Vent P. de rose Temp au vent Rafales
19.09.2019 04:00 8.0 C 70 % 903.9 hPa 0.2 km/h (0 Bft) 2.9 C 8.0 C 0.0 km/h (0 Bft)
19.09.2019 03:55 8.1 C 70 % 903.9 hPa 0.0 km/h (0 Bft) 3.0 C 8.1 C 0.0 km/h (0 Bft)
19.09.2019 03:50 8.3 C 70 % 903.8 hPa 0.2 km/h (0 Bft) 3.2 C 8.3 C 0.0 km/h (0 Bft)
19.09.2019 03:45 8.3 C 70 % 903.8 hPa 0.2 km/h (0 Bft) 3.2 C 8.3 C 0.0 km/h (0 Bft)
19.09.2019 03:40 8.2 C 70 % 903.8 hPa 0.0 km/h (0 Bft) 3.1 C 8.2 C 0.0 km/h (0 Bft)
19.09.2019 03:35 8.2 C 70 % 903.8 hPa 0.0 km/h (0 Bft) 3.1 C 8.2 C 0.0 km/h (0 Bft)
19.09.2019 03:30 8.3 C 70 % 903.9 hPa 0.0 km/h (0 Bft) 3.2 C 8.3 C 0.0 km/h (0 Bft)
19.09.2019 03:25 8.4 C 70 % 903.9 hPa 0.2 km/h (0 Bft) 3.3 C 8.4 C 0.0 km/h (0 Bft)
19.09.2019 03:20 8.5 C 70 % 903.9 hPa 0.8 km/h (0 Bft) 3.3 C 8.5 C 0.0 km/h (0 Bft)
19.09.2019 03:15 8.5 C 70 % 903.9 hPa 1.1 km/h (1 Bft) 3.3 C 8.5 C 0.0 km/h (0 Bft)
19.09.2019 03:10 8.4 C 70 % 904.1 hPa 0.6 km/h (0 Bft) 3.3 C 8.4 C 2.3 km/h (1 Bft)
19.09.2019 03:05 8.5 C 70 % 904.1 hPa 0.2 km/h (0 Bft) 3.3 C 8.5 C 0.0 km/h (0 Bft)
19.09.2019 03:00 8.5 C 70 % 904.1 hPa 0.2 km/h (0 Bft) 3.3 C 8.5 C 0.0 km/h (0 Bft)
19.09.2019 02:55 8.6 C 70 % 904.1 hPa 0.3 km/h (0 Bft) 3.4 C 8.6 C 1.8 km/h (1 Bft)
19.09.2019 02:50 8.6 C 70 % 904.1 hPa 0.3 km/h (0 Bft) 3.4 C 8.6 C 0.0 km/h (0 Bft)
19.09.2019 02:45 8.5 C 70 % 904.1 hPa 0.0 km/h (0 Bft) 3.3 C 8.5 C 0.0 km/h (0 Bft)
19.09.2019 02:40 8.7 C 70 % 904.1 hPa 0.0 km/h (0 Bft) 3.5 C 8.7 C 0.0 km/h (0 Bft)
19.09.2019 02:35 8.8 C 70 % 904.1 hPa 0.2 km/h (0 Bft) 3.6 C 8.8 C 0.0 km/h (0 Bft)
19.09.2019 02:30 8.8 C 70 % 904.3 hPa 0.0 km/h (0 Bft) 3.6 C 8.8 C 0.0 km/h (0 Bft)
19.09.2019 02:25 8.8 C 70 % 904.3 hPa 0.0 km/h (0 Bft) 3.6 C 8.8 C 0.0 km/h (0 Bft)
19.09.2019 02:20 8.8 C 70 % 904.3 hPa 0.0 km/h (0 Bft) 3.6 C 8.8 C 0.0 km/h (0 Bft)
_ Min-Heure 04:00 15:50 06:55 08:00 04:00 04:00 05:00
Minimum _ 8.0 C 61 % 901.9 hPa 0.0 km/h (0 Bft) 2.9 C 8.0 C 0.0 km/h (0 Bft)
_ Max-Heure 15:05 06:10 01:35 05:40 13:05 15:05 12:00
Maximum _ 16.7 C 83 % 904.4 hPa 1.3 km/h
N-NE (1 Bft)
10.4 C 16.7 C 8.4 km/h
N-NO (2 Bft)
Moyenne _ 12.4 C 72 % 903.0 hPa 0.2 km/h (0 Bft) 7.5 C 12.4 C 0.4 km/h (0 Bft)